Weather History for Kearney, NE

Change the Weather History Date:

Tuesday, July 23, 2013

  Actual Average Record
Temperature  
Mean Temperature 73 °F 75 °F  
Max Temperature 82 °F 87 °F 105 °F (1940)
Min Temperature 63 °F 63 °F 50 °F (1948)
Degree Days  
Heating Degree Days 0 0  
Month to date heating degree days 0  
Since 1 June heating degree days 35  
Since 1 July heating degree days 0  
Cooling Degree Days 8 10  
Month to date cooling degree days 226  
Year to date cooling degree days 452  
Since 1 June cooling degree days 405  
Growing Degree Days 22 (Base 50)    
Moisture  
Dew Point 62 °F    
Average Humidity 74    
Maximum Humidity 90    
Minimum Humidity 58    
Precipitation  
Precipitation 0.10 in - 1.65 in (1950)
Sea Level Pressure  
Sea Level Pressure 29.98 in    
Wind  
Wind Speed 9 mph (ENE)    
Max Wind Speed 27 mph    
Max Gust Speed 32 mph    
Visibility 10 miles    
Events Thunderstorm    
T = Trace of Precipitation, MM = Missing Value Source: NWS Daily Summary

Daily Weather History Graph

Daily Weather History Graph

Search for Another Location

Airport:

Trip Planner

Search our weather history database for the weather conditions in past years. The results will help you decide how hot, cold, wet, or windy it might be!

Date:

Astronomy

Jul. 23, 2013 Rise Set
Actual Time 6:24 AM CDT 8:59 PM CDT
Civil Twilight 5:53 AM CDT 9:31 PM CDT
Nautical Twilight 5:13 AM CDT 10:10 PM CDT
Astronomical Twilight 4:29 AM CDT 10:54 PM CDT
Moon 9:28 PM CDT (7/23) 7:35 AM CDT (7/23)
Length of Visible Light 15h 38m
Length of Day
14h 35m
Full, 99% of the Moon is Illuminated
Jul 23
Full
Jul 29
Last Quarter
Aug 6
New
Aug 14
First Quarter
Aug 20
Full

Hourly Weather History & Observations

Time (CDT) Temp. Heat Index Dew Point Humidity Pressure Visibility Wind Dir Wind Speed Gust Speed Precip Events Conditions
12:15 AM 69.8 °F - 62.6 °F 78% 29.90 in 10.0 mi ENE 5.8 mph - N/A   Clear
12:35 AM 69.8 °F - 62.6 °F 78% 29.91 in 10.0 mi East 5.8 mph - N/A   Clear
12:55 AM 69.8 °F - 62.6 °F 78% 29.92 in 10.0 mi SE 8.1 mph - N/A   Clear
1:15 AM 69.8 °F - 60.8 °F 73% 29.93 in 10.0 mi SE 5.8 mph - N/A   Clear
1:35 AM 69.8 °F - 60.8 °F 73% 29.92 in 10.0 mi ESE 8.1 mph - N/A   Clear
1:55 AM 69.8 °F - 60.8 °F 73% 29.92 in 10.0 mi ESE 6.9 mph - N/A   Clear
2:15 AM 69.8 °F - 60.8 °F 73% 29.92 in 10.0 mi ESE 8.1 mph - N/A   Clear
2:35 AM 69.8 °F - 57.2 °F 64% 29.91 in 10.0 mi East 10.4 mph - N/A   Clear
2:55 AM 69.8 °F - 57.2 °F 64% 29.93 in 10.0 mi East 5.8 mph - N/A   Clear
3:15 AM 68.0 °F - 57.2 °F 68% 29.94 in 10.0 mi ENE 4.6 mph - N/A   Clear
3:35 AM 66.2 °F - 59.0 °F 78% 29.96 in 10.0 mi North 4.6 mph - N/A   Partly Cloudy
3:55 AM 69.8 °F - 59.0 °F 68% 30.04 in 10.0 mi NNW 26.5 mph 32.2 mph N/A   Mostly Cloudy
4:15 AM 71.6 °F - 60.8 °F 69% 30.04 in 10.0 mi North 32.2 mph 38.0 mph N/A Thunderstorm Thunderstorm
4:35 AM 64.4 °F - 62.6 °F 94% 30.04 in 8.0 mi NNE 25.3 mph 39.1 mph 0.09 in Thunderstorm Thunderstorm
4:55 AM 62.6 °F - 60.8 °F 94% 30.03 in 10.0 mi NE 19.6 mph - 0.09 in Thunderstorm Overcast
5:15 AM 64.4 °F - 60.8 °F 88% 30.03 in 10.0 mi NNE 12.7 mph 18.4 mph N/A   Overcast
5:35 AM 64.4 °F - 60.8 °F 88% 30.01 in 10.0 mi NE 15.0 mph - N/A   Mostly Cloudy
5:55 AM 62.6 °F - 59.0 °F 88% 30.01 in 10.0 mi NE 13.8 mph - N/A   Scattered Clouds
6:15 AM 62.6 °F - 59.0 °F 88% 30.00 in 10.0 mi ENE 13.8 mph - N/A   Mostly Cloudy
6:35 AM 62.6 °F - 59.0 °F 88% 29.98 in 10.0 mi ENE 15.0 mph - N/A   Overcast
6:55 AM 62.6 °F - 59.0 °F 88% 29.96 in 10.0 mi East 11.5 mph - N/A   Mostly Cloudy
7:15 AM 62.6 °F - 59.0 °F 88% 29.93 in 10.0 mi ESE 11.5 mph - N/A   Mostly Cloudy
7:35 AM 62.6 °F - 59.0 °F 88% 29.95 in 10.0 mi ENE 5.8 mph - N/A   Overcast
7:55 AM 64.4 °F - 59.0 °F 83% 29.96 in 10.0 mi East 9.2 mph - N/A Thunderstorm Overcast
8:15 AM 64.4 °F - 59.0 °F 83% 29.94 in 10.0 mi ESE 9.2 mph - N/A Thunderstorm Overcast
8:35 AM 64.4 °F - 60.8 °F 88% 29.92 in 10.0 mi ESE 11.5 mph - 0.01 in   Partly Cloudy
8:55 AM 64.4 °F - 60.8 °F 88% 29.94 in 10.0 mi SSE 9.2 mph - 0.01 in   Clear
9:15 AM 66.2 °F - 60.8 °F 83% 29.96 in 10.0 mi SSE 10.4 mph - N/A   Clear
9:35 AM 68.0 °F - 60.8 °F 78% 29.97 in 10.0 mi SSW 4.6 mph - N/A   Clear
9:55 AM 69.8 °F - 60.8 °F 73% 29.96 in 10.0 mi South 6.9 mph - N/A   Clear
10:15 AM 69.8 °F - 60.8 °F 73% 29.97 in 10.0 mi SSW 4.6 mph - N/A   Clear
10:35 AM 71.6 °F - 60.8 °F 69% 29.97 in 10.0 mi Calm Calm - N/A   Clear
10:55 AM 73.4 °F - 62.6 °F 69% 29.98 in 10.0 mi Calm Calm - N/A   Clear
11:15 AM 75.2 °F - 62.6 °F 65% 29.99 in 10.0 mi North 9.2 mph - N/A   Clear
11:35 AM 75.2 °F - 62.6 °F 65% 29.99 in 10.0 mi NNE 11.5 mph - N/A   Clear
11:55 AM 75.2 °F - 64.4 °F 69% 29.98 in 10.0 mi NE 9.2 mph - N/A   Clear
12:15 PM 77.0 °F - 64.4 °F 65% 29.97 in 10.0 mi NE 10.4 mph - N/A   Clear
12:35 PM 77.0 °F - 64.4 °F 65% 29.97 in 10.0 mi NE 3.5 mph - N/A   Clear
12:55 PM 78.8 °F - 64.4 °F 61% 29.96 in 10.0 mi ENE 6.9 mph - N/A   Clear
1:15 PM 78.8 °F - 64.4 °F 61% 29.96 in 10.0 mi NNE 4.6 mph - N/A   Clear
1:35 PM 80.6 °F 82.3 °F 64.4 °F 58% 29.96 in 10.0 mi Calm Calm - N/A   Clear
1:55 PM 80.6 °F 82.7 °F 66.2 °F 61% 29.98 in 10.0 mi NNE 10.4 mph - N/A   Clear
2:15 PM 82.4 °F 84.6 °F 66.2 °F 58% 29.99 in 10.0 mi ENE 10.4 mph - N/A   Clear
2:35 PM 80.6 °F 82.7 °F 66.2 °F 61% 30.00 in 10.0 mi NE 16.1 mph - N/A   Partly Cloudy
2:55 PM 78.8 °F - 66.2 °F 65% 30.01 in 10.0 mi NE 15.0 mph - N/A   Clear
3:15 PM 80.6 °F 82.3 °F 64.4 °F 58% 30.00 in 10.0 mi NE 11.5 mph - N/A   Clear
3:35 PM 78.8 °F - 66.2 °F 65% 30.01 in 10.0 mi ENE 13.8 mph - N/A   Partly Cloudy
3:55 PM 78.8 °F - 66.2 °F 65% 30.01 in 10.0 mi NE 13.8 mph - N/A   Partly Cloudy
4:15 PM 80.6 °F 82.3 °F 64.4 °F 58% 30.01 in 10.0 mi NE 15.0 mph 18.4 mph N/A   Clear
4:35 PM 80.6 °F 81.8 °F 62.6 °F 54% 30.01 in 10.0 mi NE 15.0 mph - N/A   Clear
4:55 PM 80.6 °F 82.3 °F 64.4 °F 58% 30.00 in 10.0 mi ENE 12.7 mph - N/A   Clear
5:15 PM 80.6 °F 82.7 °F 66.2 °F 61% 30.00 in 8.0 mi ENE 12.7 mph - N/A   Clear
5:35 PM 80.6 °F 82.7 °F 66.2 °F 61% 30.00 in 10.0 mi ENE 11.5 mph 17.3 mph N/A   Clear
5:55 PM 80.6 °F 82.7 °F 66.2 °F 61% 30.00 in 10.0 mi ENE 11.5 mph - N/A   Clear
6:15 PM 78.8 °F - 66.2 °F 65% 30.00 in 10.0 mi East 12.7 mph - N/A   Clear
6:35 PM 78.8 °F - 64.4 °F 61% 30.00 in 10.0 mi NE 12.7 mph - N/A   Clear
6:55 PM 78.8 °F - 64.4 °F 61% 29.99 in 10.0 mi NE 12.7 mph - N/A   Clear
7:15 PM 78.8 °F - 64.4 °F 61% 29.99 in 10.0 mi ENE 12.7 mph - N/A   Clear
7:35 PM 77.0 °F - 64.4 °F 65% 30.00 in 10.0 mi ENE 12.7 mph - N/A   Clear
7:55 PM 75.2 °F - 64.4 °F 69% 30.00 in 10.0 mi ENE 9.2 mph - N/A   Clear
8:15 PM 73.4 °F - 64.4 °F 73% 30.01 in 10.0 mi ENE 8.1 mph - N/A   Clear
8:35 PM 71.6 °F - 64.4 °F 78% 30.02 in 10.0 mi ENE 6.9 mph - N/A   Clear
8:55 PM 69.8 °F - 64.4 °F 83% 30.02 in 10.0 mi ENE 6.9 mph - N/A   Clear
9:15 PM 69.8 °F - 64.4 °F 83% 30.02 in 10.0 mi ENE 8.1 mph - N/A   Clear
9:35 PM 68.0 °F - 62.6 °F 83% 30.02 in 10.0 mi ENE 5.8 mph - N/A   Clear
9:55 PM 66.2 °F - 62.6 °F 88% 30.02 in 10.0 mi ENE 5.8 mph - N/A   Clear
10:15 PM 66.2 °F - 62.6 °F 88% 30.03 in 10.0 mi NE 5.8 mph - N/A   Clear
10:35 PM 66.2 °F - 62.6 °F 88% 30.04 in 10.0 mi NE 5.8 mph - N/A   Clear
10:55 PM 66.2 °F - 62.6 °F 88% 30.04 in 10.0 mi ENE 3.5 mph - N/A   Clear
11:15 PM 66.2 °F - 62.6 °F 88% 30.04 in 10.0 mi ENE 3.5 mph - N/A   Clear
11:35 PM 66.2 °F - 62.6 °F 88% 30.04 in 10.0 mi ENE 3.5 mph - N/A   Clear
11:55 PM 66.2 °F - 62.6 °F 88% 30.04 in 10.0 mi ENE 4.6 mph - N/A   Clear